Time;durP1;ratioP1;P1;durP2;ratioP2;P2;SDS_P1;SDS_P2;PMS_P1;PMS_P2;Temp;Humidity;BMP_temperature;BMP_pressure;BME280_temperature;BME280_humidity;BME280_pressure;Samples;Min_cycle;Max_cycle;Signal;HPM_P1;HPM_P2
2020/12/24 00:02:11;;;;;;;0.50;0.20;;;8.60;98.30;;;;;;5076327;28;20037;-78
2020/12/24 00:04:36;;;;;;;0.60;0.20;;;8.60;98.30;;;;;;5058460;28;20028;-78
2020/12/24 00:07:02;;;;;;;0.37;0.20;;;8.60;98.30;;;;;;5074992;28;20044;-79
2020/12/24 00:09:28;;;;;;;0.37;0.10;;;8.50;98.30;;;;;;5058430;28;20392;-79
2020/12/24 00:11:55;;;;;;;0.20;0.10;;;8.50;98.30;;;;;;5058305;28;20035;-80
2020/12/24 00:14:21;;;;;;;0.27;0.17;;;8.50;98.40;;;;;;5075059;28;20033;-79
2020/12/24 00:16:47;;;;;;;0.20;0.10;;;8.50;98.40;;;;;;5074956;28;20055;-79
2020/12/24 00:19:12;;;;;;;0.70;0.20;;;8.60;98.40;;;;;;5074909;28;20496;-79
2020/12/24 00:21:39;;;;;;;0.00;0.00;;;8.50;98.50;;;;;;5076054;28;20028;-80
2020/12/24 00:24:05;;;;;;;0.30;0.10;;;8.60;98.50;;;;;;5074518;28;20059;-79
2020/12/24 00:26:31;;;;;;;0.13;0.10;;;8.60;98.50;;;;;;5058174;28;20504;-80
2020/12/24 00:28:57;;;;;;;0.10;0.10;;;8.60;98.50;;;;;;5074599;28;20032;-79
2020/12/24 00:31:23;;;;;;;0.10;0.00;;;8.60;98.50;;;;;;5057838;28;20016;-80
2020/12/24 00:33:49;;;;;;;0.00;0.00;;;8.60;98.50;;;;;;5073727;28;20452;-80
2020/12/24 00:36:15;;;;;;;0.00;0.00;;;8.60;98.40;;;;;;5074623;28;20032;-79
2020/12/24 00:38:40;;;;;;;0.00;0.00;;;8.60;98.40;;;;;;5074423;28;20029;-79
2020/12/24 00:41:07;;;;;;;0.00;0.00;;;8.60;98.40;;;;;;5075788;28;20025;-80
2020/12/24 00:43:34;;;;;;;0.07;0.00;;;8.70;98.40;;;;;;5074423;28;20499;-79
2020/12/24 00:46:00;;;;;;;0.10;0.10;;;8.60;98.40;;;;;;5075825;28;20535;-80
2020/12/24 00:48:26;;;;;;;0.10;0.10;;;8.70;98.40;;;;;;5075653;28;20021;-80
2020/12/24 00:50:51;;;;;;;0.10;0.00;;;8.70;98.40;;;;;;5074490;28;20099;-80
2020/12/24 00:53:17;;;;;;;0.30;0.00;;;8.60;98.30;;;;;;5075403;28;20052;-81
2020/12/24 00:55:43;;;;;;;0.10;0.00;;;8.60;98.40;;;;;;5074366;28;20036;-81
2020/12/24 00:58:08;;;;;;;0.03;0.00;;;8.60;98.40;;;;;;5057526;28;20111;-80
2020/12/24 01:00:34;;;;;;;0.10;0.03;;;8.60;98.30;;;;;;5057362;28;20112;-81
2020/12/24 01:03:00;;;;;;;0.20;0.10;;;8.70;98.40;;;;;;5075181;28;20028;-80
2020/12/24 01:05:25;;;;;;;0.00;0.00;;;8.70;98.40;;;;;;5074035;28;20029;-81
2020/12/24 01:07:51;;;;;;;0.37;0.00;;;8.70;98.40;;;;;;5056969;28;20052;-79
2020/12/24 01:10:17;;;;;;;0.10;0.10;;;8.70;98.40;;;;;;5075381;28;20392;-80
2020/12/24 01:12:42;;;;;;;0.13;0.00;;;8.60;98.40;;;;;;5075045;28;20160;-79
2020/12/24 01:15:09;;;;;;;0.00;0.00;;;8.60;98.30;;;;;;5074199;28;20063;-78
2020/12/24 01:17:36;;;;;;;0.17;0.10;;;8.50;98.30;;;;;;5040544;28;20131;-78
2020/12/24 01:20:03;;;;;;;0.07;0.00;;;8.50;98.50;;;;;;5073728;28;20040;-74
2020/12/24 01:22:29;;;;;;;0.00;0.00;;;8.40;98.30;;;;;;5074008;28;20024;-75
2020/12/24 01:24:55;;;;;;;0.00;0.00;;;8.40;98.30;;;;;;5056937;28;20055;-76
2020/12/24 01:27:20;;;;;;;0.47;0.10;;;8.40;98.30;;;;;;5074782;28;20102;-77
2020/12/24 01:29:46;;;;;;;0.60;0.10;;;8.30;98.20;;;;;;5073573;28;20040;-73
2020/12/24 01:32:11;;;;;;;0.23;0.10;;;8.30;98.20;;;;;;5073343;28;20461;-76
2020/12/24 01:34:37;;;;;;;0.33;0.07;;;8.30;98.30;;;;;;5039958;28;20120;-75
2020/12/24 01:37:03;;;;;;;0.03;0.00;;;8.40;98.30;;;;;;5056603;28;20152;-74
2020/12/24 01:39:29;;;;;;;0.00;0.00;;;8.20;98.30;;;;;;5073265;28;20036;-75
2020/12/24 01:41:55;;;;;;;0.00;0.00;;;8.20;98.30;;;;;;5074485;28;20033;-75
2020/12/24 01:44:21;;;;;;;0.10;0.00;;;8.20;98.30;;;;;;5072819;28;20086;-75
2020/12/24 01:46:48;;;;;;;0.10;0.00;;;8.20;98.30;;;;;;5074981;28;20032;-76
2020/12/24 01:49:15;;;;;;;0.13;0.10;;;8.10;98.30;;;;;;5073765;28;20044;-74
2020/12/24 01:51:53;;;;;;;0.60;0.10;;;8.10;98.30;;;;;;5073071;28;20025;-75
2020/12/24 01:54:20;;;;;;;0.50;0.03;;;8.10;98.30;;;;;;5074265;28;20024;-74
2020/12/24 01:56:47;;;;;;;0.40;0.03;;;8.10;98.30;;;;;;5074736;28;20063;-75
2020/12/24 01:59:16;;;;;;;0.03;0.03;;;8.00;98.30;;;;;;5073241;28;20021;-75
2020/12/24 02:01:46;;;;;;;0.00;0.00;;;8.10;98.40;;;;;;5072838;28;20025;-80
2020/12/24 02:04:12;;;;;;;0.13;0.10;;;8.10;98.40;;;;;;5073914;28;20033;-81
2020/12/24 02:06:40;;;;;;;0.10;0.00;;;8.10;98.40;;;;;;5072600;28;20055;-79
2020/12/24 02:09:06;;;;;;;0.10;0.00;;;8.20;98.50;;;;;;5072722;28;20396;-80
2020/12/24 02:11:31;;;;;;;0.00;0.00;;;8.10;98.40;;;;;;5056119;28;20070;-80
2020/12/24 02:13:57;;;;;;;0.00;0.00;;;8.10;98.40;;;;;;5073915;28;20420;-79
2020/12/24 02:16:23;;;;;;;0.13;0.00;;;8.10;98.40;;;;;;5073838;28;20036;-80
2020/12/24 02:18:49;;;;;;;0.93;0.10;;;8.10;98.50;;;;;;5072629;28;20025;-74
2020/12/24 02:21:14;;;;;;;0.20;0.10;;;8.00;98.40;;;;;;5072864;28;20117;-75
2020/12/24 02:23:40;;;;;;;0.00;0.00;;;8.10;98.50;;;;;;5073766;28;20044;-75
2020/12/24 02:26:05;;;;;;;0.00;0.00;;;8.10;98.50;;;;;;5055810;28;20424;-75
2020/12/24 02:28:31;;;;;;;0.17;0.10;;;8.10;98.80;;;;;;5072541;28;20029;-75
2020/12/24 02:30:57;;;;;;;0.00;0.00;;;8.10;98.50;;;;;;5055716;28;21068;-75
2020/12/24 02:33:23;;;;;;;0.00;0.00;;;8.10;98.50;;;;;;5073779;28;20024;-75
2020/12/24 02:35:49;;;;;;;0.00;0.00;;;8.10;98.50;;;;;;5055501;28;20086;-75
2020/12/24 02:38:14;;;;;;;0.10;0.10;;;8.10;98.50;;;;;;5055561;28;20032;-75
2020/12/24 02:40:40;;;;;;;0.67;0.10;;;8.00;98.50;;;;;;5039092;28;20450;-74
2020/12/24 02:43:06;;;;;;;0.00;0.00;;;8.00;98.50;;;;;;5072233;28;20033;-75
2020/12/24 02:45:31;;;;;;;0.30;0.10;;;8.10;98.50;;;;;;5072316;28;20036;-74
2020/12/24 02:47:57;;;;;;;0.00;0.00;;;8.00;98.50;;;;;;5055533;28;20031;-74
2020/12/24 02:50:22;;;;;;;0.17;0.00;;;8.10;98.50;;;;;;5072426;28;20046;-75
2020/12/24 02:52:48;;;;;;;0.10;0.00;;;8.10;98.50;;;;;;5072459;28;20039;-76
2020/12/24 02:55:14;;;;;;;0.77;0.10;;;8.00;98.50;;;;;;5054693;28;20111;-75
2020/12/24 02:57:40;;;;;;;0.20;0.10;;;8.00;98.50;;;;;;5073305;28;20428;-74
2020/12/24 03:00:08;;;;;;;0.10;0.10;;;8.10;98.60;;;;;;5055281;28;20346;-74
2020/12/24 03:02:34;;;;;;;0.00;0.00;;;8.10;98.60;;;;;;5073258;28;20376;-74
2020/12/24 03:04:59;;;;;;;1.07;0.10;;;8.10;98.60;;;;;;5072113;28;20028;-74
2020/12/24 03:07:25;;;;;;;0.00;0.00;;;8.10;98.60;;;;;;5071786;28;20404;-74
2020/12/24 03:09:50;;;;;;;0.10;0.00;;;8.10;98.60;;;;;;5073138;28;20356;-74
2020/12/24 03:12:16;;;;;;;0.20;0.10;;;8.10;98.60;;;;;;5052324;28;20391;-74
2020/12/24 03:14:41;;;;;;;0.23;0.10;;;8.10;98.60;;;;;;5051280;28;20037;-74
2020/12/24 03:17:07;;;;;;;0.00;0.00;;;8.20;98.70;;;;;;5052437;28;20068;-74
2020/12/24 03:19:33;;;;;;;0.00;0.00;;;8.20;98.70;;;;;;5034536;28;20036;-74
2020/12/24 03:21:58;;;;;;;0.10;0.10;;;8.10;98.60;;;;;;5052187;28;20488;-75
2020/12/24 03:24:24;;;;;;;0.03;0.00;;;8.10;98.60;;;;;;5052067;28;20036;-75
2020/12/24 03:26:50;;;;;;;0.10;0.10;;;8.30;98.70;;;;;;5035270;28;20033;-75
2020/12/24 03:29:16;;;;;;;0.10;0.10;;;8.10;98.60;;;;;;5051880;28;20082;-74
2020/12/24 03:31:41;;;;;;;0.10;0.10;;;8.10;98.60;;;;;;5052955;28;20492;-74
2020/12/24 03:34:07;;;;;;;0.37;0.10;;;8.10;98.60;;;;;;5035150;28;20397;-74
2020/12/24 03:36:32;;;;;;;0.43;0.10;;;8.10;98.60;;;;;;5051978;28;20033;-74
2020/12/24 03:38:58;;;;;;;0.43;0.10;;;8.10;98.60;;;;;;5035009;28;20041;-74
2020/12/24 03:41:24;;;;;;;0.17;0.10;;;8.10;98.60;;;;;;5051685;28;20040;-74
2020/12/24 03:43:49;;;;;;;0.10;0.10;;;8.10;98.60;;;;;;5051560;28;20044;-74
2020/12/24 03:46:15;;;;;;;0.33;0.10;;;8.00;98.60;;;;;;5051701;28;20453;-75
2020/12/24 03:48:40;;;;;;;0.47;0.00;;;8.10;98.60;;;;;;5051569;28;20111;-75
2020/12/24 03:51:06;;;;;;;0.20;0.10;;;8.10;98.70;;;;;;5051857;28;20382;-74
2020/12/24 03:53:32;;;;;;;0.30;0.10;;;8.10;98.70;;;;;;5051471;28;20033;-75
2020/12/24 03:55:58;;;;;;;0.00;0.00;;;8.10;98.70;;;;;;5051553;28;20049;-74
2020/12/24 03:58:23;;;;;;;0.10;0.10;;;8.10;98.70;;;;;;5051423;28;20048;-74
2020/12/24 04:00:49;;;;;;;0.30;0.10;;;8.10;98.70;;;;;;5051579;28;20040;-74
2020/12/24 04:03:15;;;;;;;0.07;0.07;;;8.10;98.70;;;;;;5034791;28;20043;-75
2020/12/24 04:05:40;;;;;;;0.17;0.10;;;8.10;98.70;;;;;;5034859;28;20021;-75
2020/12/24 04:08:07;;;;;;;0.23;0.10;;;8.10;98.70;;;;;;5037730;28;20053;-74
2020/12/24 04:10:32;;;;;;;0.10;0.10;;;8.20;98.70;;;;;;5038623;28;20044;-74
2020/12/24 04:12:58;;;;;;;0.10;0.10;;;8.20;98.70;;;;;;5056525;28;20033;-74
2020/12/24 04:15:24;;;;;;;0.03;0.03;;;8.20;98.70;;;;;;5056252;28;20044;-75
2020/12/24 04:17:50;;;;;;;0.00;0.00;;;8.10;98.70;;;;;;5054923;28;20405;-74
2020/12/24 04:20:16;;;;;;;0.10;0.00;;;8.10;98.70;;;;;;5056223;28;20036;-74
2020/12/24 04:22:41;;;;;;;0.10;0.00;;;8.20;98.70;;;;;;5054658;28;20174;-74
2020/12/24 04:25:07;;;;;;;0.00;0.00;;;8.20;98.70;;;;;;5054857;28;20120;-75
2020/12/24 04:27:32;;;;;;;0.50;0.10;;;8.20;98.70;;;;;;5037991;28;20033;-74
2020/12/24 04:29:58;;;;;;;0.10;0.07;;;8.20;98.70;;;;;;5038040;28;20397;-74
2020/12/24 04:32:23;;;;;;;0.10;0.10;;;8.20;98.80;;;;;;5054579;28;20039;-74
2020/12/24 04:34:49;;;;;;;0.10;0.00;;;8.20;98.70;;;;;;5055874;28;20480;-74
2020/12/24 04:37:18;;;;;;;0.00;0.00;;;8.20;98.70;;;;;;5055746;28;20086;-74
2020/12/24 04:39:45;;;;;;;0.00;0.00;;;8.20;98.80;;;;;;5054395;28;20033;-74
2020/12/24 04:42:12;;;;;;;0.30;0.10;;;8.10;98.70;;;;;;5054364;28;20029;-75
2020/12/24 04:44:39;;;;;;;0.40;0.00;;;8.20;98.70;;;;;;5055600;28;20039;-79
2020/12/24 04:47:05;;;;;;;0.00;0.00;;;8.20;98.70;;;;;;5054383;28;20029;-79
2020/12/24 04:49:31;;;;;;;0.10;0.10;;;8.20;98.70;;;;;;5037806;28;20036;-78
2020/12/24 04:51:57;;;;;;;0.23;0.10;;;8.30;98.80;;;;;;5054168;28;20021;-78
2020/12/24 04:54:23;;;;;;;0.10;0.10;;;8.30;98.80;;;;;;5054388;28;20044;-77
2020/12/24 04:56:48;;;;;;;0.10;0.10;;;8.20;98.80;;;;;;5054153;28;20033;-76
2020/12/24 04:59:17;;;;;;;0.50;0.10;;;8.20;98.70;;;;;;5054529;28;20029;-78
2020/12/24 05:01:43;;;;;;;0.13;0.07;;;8.20;98.70;;;;;;5065896;28;20116;-76
2020/12/24 05:04:09;;;;;;;0.00;0.00;;;8.10;98.60;;;;;;5075219;28;20487;-77
2020/12/24 05:06:34;;;;;;;0.00;0.00;;;8.00;98.20;;;;;;5073849;28;20040;-77
2020/12/24 05:09:00;;;;;;;0.10;0.10;;;7.80;98.00;;;;;;5074155;28;20046;-77
2020/12/24 05:11:26;;;;;;;0.20;0.10;;;7.60;97.80;;;;;;5075169;28;20074;-78
2020/12/24 05:13:52;;;;;;;0.23;0.10;;;7.40;97.50;;;;;;5075062;28;20028;-78
2020/12/24 05:16:18;;;;;;;0.17;0.10;;;7.30;97.30;;;;;;5073713;28;20031;-77
2020/12/24 05:18:43;;;;;;;0.07;0.07;;;7.10;97.30;;;;;;5073244;28;20042;-78
2020/12/24 05:21:09;;;;;;;0.10;0.10;;;6.90;97.20;;;;;;5073913;28;20051;-78
2020/12/24 05:23:35;;;;;;;0.17;0.10;;;6.70;97.00;;;;;;5056973;28;20082;-77
2020/12/24 05:26:18;;;;;;;0.10;0.10;;;6.50;97.00;;;;;;5073691;28;20032;-77
2020/12/24 05:28:44;;;;;;;0.17;0.10;;;6.40;97.10;;;;;;5074768;28;20496;-77
2020/12/24 05:31:09;;;;;;;0.10;0.10;;;6.30;97.00;;;;;;5073543;28;20033;-77
2020/12/24 05:33:35;;;;;;;0.10;0.10;;;6.20;97.10;;;;;;5074547;28;20067;-78
2020/12/24 05:36:20;;;;;;;0.10;0.10;;;6.10;97.10;;;;;;5056601;28;20023;-77
2020/12/24 05:38:46;;;;;;;0.10;0.10;;;6.00;97.20;;;;;;5073370;28;20035;-78
2020/12/24 05:41:30;;;;;;;0.10;0.10;;;6.00;97.20;;;;;;5074494;28;20037;-78
2020/12/24 05:44:17;;;;;;;0.10;0.10;;;5.90;97.20;;;;;;5074412;28;20024;-78
2020/12/24 05:46:47;;;;;;;0.10;0.10;;;5.80;97.20;;;;;;5073961;28;20064;-78
2020/12/24 05:49:14;;;;;;;0.10;0.10;;;5.70;97.30;;;;;;5074218;28;20060;-79
2020/12/24 05:51:40;;;;;;;0.10;0.10;;;5.70;97.30;;;;;;5072977;28;20064;-78
2020/12/24 05:54:07;;;;;;;1.03;0.10;;;5.60;97.40;;;;;;5074414;28;20024;-78
2020/12/24 05:56:37;;;;;;;0.10;0.10;;;5.60;97.40;;;;;;5074341;28;20111;-78
2020/12/24 05:59:04;;;;;;;0.10;0.10;;;5.60;97.50;;;;;;5074227;28;20104;-78
2020/12/24 06:01:39;;;;;;;0.10;0.10;;;5.50;97.50;;;;;;5073059;28;20028;-78
2020/12/24 06:04:07;;;;;;;;;;;5.50;97.50;;;;;;5074602;28;20051;-78
2020/12/24 06:06:44;;;;;;;0.10;0.10;;;5.50;97.50;;;;;;5072644;28;20012;-77
2020/12/24 06:09:19;;;;;;;0.30;0.10;;;5.40;97.50;;;;;;5072505;28;20017;-78
2020/12/24 06:11:52;;;;;;;0.40;0.10;;;5.40;97.60;;;;;;5056219;28;20070;-77
2020/12/24 06:14:26;;;;;;;0.10;0.10;;;5.40;97.60;;;;;;5072387;28;20074;-77
2020/12/24 06:16:54;;;;;;;0.10;0.10;;;5.40;97.60;;;;;;5072653;28;20380;-76
2020/12/24 06:19:21;;;;;;;0.10;0.10;;;5.30;97.60;;;;;;5072525;28;20017;-79
2020/12/24 06:21:47;;;;;;;0.13;0.10;;;5.30;97.60;;;;;;5072520;28;20029;-77
2020/12/24 06:24:13;;;;;;;0.10;0.10;;;5.30;97.60;;;;;;5073504;28;20036;-77
2020/12/24 06:26:46;;;;;;;0.10;0.10;;;5.30;97.70;;;;;;5070530;28;20152;-78
2020/12/24 06:29:15;;;;;;;0.10;0.08;;;5.30;97.70;;;;;;5059134;28;20528;-78
2020/12/24 06:31:42;;;;;;;0.10;0.10;;;5.30;97.70;;;;;;5051406;28;20025;-78
2020/12/24 06:34:21;;;;;;;0.10;0.10;;;5.20;97.70;;;;;;5052258;28;20036;-79
2020/12/24 06:36:47;;;;;;;0.10;0.10;;;5.20;97.70;;;;;;5060703;28;20028;-79
2020/12/24 06:39:12;;;;;;;0.10;0.10;;;5.20;97.70;;;;;;5072177;28;20468;-79
2020/12/24 06:41:41;;;;;;;0.23;0.10;;;5.20;97.70;;;;;;5073437;28;20043;-79
2020/12/24 06:44:08;;;;;;;0.13;0.10;;;5.20;97.70;;;;;;5063757;28;20036;-77
2020/12/24 06:46:55;;;;;;;0.10;0.10;;;5.20;97.70;;;;;;5063952;28;20020;-79
2020/12/24 06:49:32;;;;;;;0.57;0.10;;;5.10;97.70;;;;;;5055797;28;20115;-79
2020/12/24 06:51:57;;;;;;;0.13;0.10;;;5.20;97.80;;;;;;5059550;28;20163;-79
2020/12/24 06:54:27;;;;;;;0.10;0.10;;;5.20;97.80;;;;;;5051859;28;20060;-79
2020/12/24 06:57:24;;;;;;;0.00;0.00;;;5.20;97.80;;;;;;5052063;28;20155;-79
2020/12/24 07:00:19;;;;;;;0.10;0.10;;;5.20;97.80;;;;;;5057771;28;20422;-79
2020/12/24 07:02:49;;;;;;;0.10;0.10;;;5.20;97.90;;;;;;5052158;28;20035;-79
2020/12/24 07:05:39;;;;;;;0.10;0.10;;;5.20;97.90;;;;;;5058960;28;20107;-79
2020/12/24 07:08:05;;;;;;;0.20;0.10;;;5.20;98.00;;;;;;5065765;28;20511;-79
2020/12/24 07:10:49;;;;;;;0.10;0.10;;;5.20;98.00;;;;;;5057686;28;20040;-79
2020/12/24 07:13:36;;;;;;;0.10;0.10;;;5.20;98.00;;;;;;5059551;28;20503;-80
2020/12/24 07:16:07;;;;;;;0.10;0.10;;;5.30;98.00;;;;;;5060803;28;20439;-80
2020/12/24 07:18:35;;;;;;;0.10;0.10;;;5.30;98.00;;;;;;5057803;28;20036;-79
2020/12/24 07:21:11;;;;;;;0.10;0.10;;;5.30;98.20;;;;;;5060716;28;20029;-80
2020/12/24 07:23:40;;;;;;;0.10;0.10;;;5.30;98.00;;;;;;5065721;28;20365;-79
2020/12/24 07:26:07;;;;;;;0.10;0.10;;;5.30;98.00;;;;;;5061420;28;20021;-80
2020/12/24 07:28:34;;;;;;;0.10;0.10;;;5.40;98.00;;;;;;5065361;28;20025;-80
2020/12/24 07:31:02;;;;;;;0.10;0.10;;;5.30;98.00;;;;;;5067056;28;20021;-80
2020/12/24 07:33:28;;;;;;;0.10;0.10;;;5.40;98.00;;;;;;5064591;28;20027;-80
2020/12/24 07:35:54;;;;;;;0.10;0.10;;;5.40;98.00;;;;;;5051457;28;20029;-79
2020/12/24 07:38:28;;;;;;;0.47;0.10;;;5.40;98.00;;;;;;5051580;28;20033;-80
2020/12/24 07:40:54;;;;;;;;;;;5.40;98.00;;;;;;5057028;28;20531;-80
2020/12/24 07:43:20;;;;;;;0.10;0.10;;;5.40;98.00;;;;;;5055011;28;19908;-79
2020/12/24 07:45:45;;;;;;;0.10;0.10;;;5.40;97.90;;;;;;5055483;28;20033;-79
2020/12/24 07:48:22;;;;;;;0.10;0.10;;;5.40;98.20;;;;;;5055473;28;20025;-79
2020/12/24 07:50:50;;;;;;;0.13;0.10;;;5.40;98.00;;;;;;5055221;28;20036;-79
2020/12/24 07:53:23;;;;;;;0.10;0.10;;;5.50;98.00;;;;;;5055443;28;20091;-79
2020/12/24 07:55:49;;;;;;;0.10;0.10;;;5.40;98.00;;;;;;5055258;28;20021;-78
2020/12/24 07:58:16;;;;;;;0.10;0.10;;;5.50;98.00;;;;;;5055465;28;20029;-78
2020/12/24 08:00:46;;;;;;;0.10;0.10;;;5.40;98.00;;;;;;5056480;28;20059;-78
2020/12/24 08:03:15;;;;;;;0.10;0.10;;;5.40;97.90;;;;;;5056344;28;20040;-78
2020/12/24 08:05:41;;;;;;;0.50;0.10;;;5.40;98.00;;;;;;5056413;28;20111;-78
2020/12/24 08:08:08;;;;;;;0.10;0.10;;;5.40;98.00;;;;;;5038378;28;20447;-79
2020/12/24 08:10:43;;;;;;;0.10;0.10;;;5.40;97.90;;;;;;5056453;28;20029;-78
2020/12/24 08:13:10;;;;;;;0.10;0.10;;;5.40;97.90;;;;;;5054923;28;20491;-78
2020/12/24 08:15:39;;;;;;;0.10;0.10;;;5.40;97.90;;;;;;5056324;28;20065;-78
2020/12/24 08:18:07;;;;;;;0.17;0.10;;;5.40;97.90;;;;;;5055172;28;20025;-80
2020/12/24 08:20:57;;;;;;;0.10;0.10;;;5.30;97.90;;;;;;5056213;28;20037;-80
2020/12/24 08:23:44;;;;;;;0.10;0.10;;;5.30;98.00;;;;;;5054382;28;20033;-79
2020/12/24 08:26:17;;;;;;;0.10;0.10;;;5.30;98.00;;;;;;5054680;28;20540;-79
2020/12/24 08:28:58;;;;;;;0.03;0.03;;;5.40;98.10;;;;;;5055954;28;20079;-80
2020/12/24 08:31:25;;;;;;;0.10;0.10;;;5.40;98.10;;;;;;5054828;28;20423;-80
2020/12/24 08:33:52;;;;;;;0.10;0.10;;;5.40;98.10;;;;;;5055846;28;20469;-79
2020/12/24 08:36:25;;;;;;;0.30;0.10;;;5.40;98.10;;;;;;5054428;28;20539;-79
2020/12/24 08:39:02;;;;;;;0.30;0.10;;;5.40;98.20;;;;;;5054466;28;20515;-78
2020/12/24 08:41:32;;;;;;;0.10;0.10;;;5.50;98.20;;;;;;5055556;28;20025;-79
2020/12/24 08:43:59;;;;;;;0.20;0.10;;;5.50;98.20;;;;;;5054247;28;20116;-78
2020/12/24 08:46:24;;;;;;;0.20;0.10;;;5.50;98.20;;;;;;5054489;28;20060;-78
2020/12/24 08:48:50;;;;;;;0.20;0.10;;;5.50;98.20;;;;;;5054322;28;20056;-78
2020/12/24 08:51:20;;;;;;;0.10;0.10;;;5.50;98.20;;;;;;5054358;28;20044;-78
2020/12/24 08:53:46;;;;;;;0.10;0.10;;;5.50;98.20;;;;;;5053106;28;20037;-78
2020/12/24 08:56:16;;;;;;;0.10;0.10;;;5.60;98.30;;;;;;5055274;28;20033;-77
2020/12/24 08:59:05;;;;;;;0.20;0.10;;;5.60;98.30;;;;;;5054110;28;20400;-78
2020/12/24 09:01:43;;;;;;;0.10;0.10;;;5.60;98.30;;;;;;5055170;28;20424;-78
2020/12/24 09:04:14;;;;;;;0.17;0.10;;;5.60;98.30;;;;;;5054078;28;20120;-78
2020/12/24 09:06:41;;;;;;;0.30;0.20;;;5.60;98.30;;;;;;5053850;28;20091;-78
2020/12/24 09:09:06;;;;;;;0.20;0.10;;;5.70;98.30;;;;;;5054090;28;20040;-78
2020/12/24 09:11:32;;;;;;;0.20;0.10;;;5.60;98.30;;;;;;5054026;28;20087;-78
2020/12/24 09:13:59;;;;;;;0.50;0.10;;;5.60;98.30;;;;;;5068195;28;20058;-78
2020/12/24 09:16:25;;;;;;;0.20;0.10;;;5.60;98.30;;;;;;5065128;28;20025;-79
2020/12/24 09:19:01;;;;;;;0.10;0.10;;;5.60;98.30;;;;;;5066607;28;20089;-78
2020/12/24 09:21:26;;;;;;;0.23;0.10;;;5.70;98.30;;;;;;5073604;28;20036;-79
2020/12/24 09:23:52;;;;;;;0.10;0.10;;;5.60;98.30;;;;;;5074826;28;20032;-78
2020/12/24 09:26:17;;;;;;;0.20;0.10;;;5.70;98.40;;;;;;5051264;28;20477;-78
2020/12/24 09:28:43;;;;;;;0.10;0.10;;;5.60;98.30;;;;;;5052584;28;20040;-77
2020/12/24 09:31:09;;;;;;;0.20;0.10;;;5.70;98.40;;;;;;5074707;28;20029;-79
2020/12/24 09:33:34;;;;;;;0.10;0.10;;;5.80;98.40;;;;;;5073091;28;20036;-77
2020/12/24 09:36:00;;;;;;;0.30;0.10;;;5.80;98.40;;;;;;5053436;28;20032;-77
2020/12/24 09:38:25;;;;;;;0.10;0.10;;;5.80;98.30;;;;;;5073198;28;20032;-77
2020/12/24 09:40:51;;;;;;;0.20;0.10;;;5.80;98.30;;;;;;5053442;28;20037;-78
2020/12/24 09:43:17;;;;;;;0.40;0.10;;;5.80;98.30;;;;;;5070870;28;20383;-77
2020/12/24 09:45:42;;;;;;;0.40;0.10;;;5.80;98.30;;;;;;5066064;28;20055;-77
2020/12/24 09:48:08;;;;;;;0.00;0.00;;;5.80;98.30;;;;;;5068459;28;20025;-78
2020/12/24 09:50:37;;;;;;;0.10;0.10;;;5.80;98.30;;;;;;5052992;28;20057;-78
2020/12/24 09:53:03;;;;;;;0.10;0.10;;;5.80;98.30;;;;;;5065879;28;20024;-77
2020/12/24 09:55:29;;;;;;;0.20;0.10;;;5.80;98.30;;;;;;5072430;28;20041;-78
2020/12/24 09:57:55;;;;;;;0.10;0.10;;;5.90;98.40;;;;;;5061098;28;20037;-78
2020/12/24 10:00:21;;;;;;;0.20;0.10;;;5.90;98.40;;;;;;5060300;28;20029;-75
2020/12/24 10:02:46;;;;;;;0.40;0.10;;;5.90;98.40;;;;;;5053943;28;20112;-73
2020/12/24 10:05:12;;;;;;;0.20;0.10;;;5.90;98.40;;;;;;5052604;28;20033;-73
2020/12/24 10:07:37;;;;;;;0.20;0.10;;;5.90;98.40;;;;;;5060305;28;20053;-74
2020/12/24 10:10:04;;;;;;;0.10;0.10;;;6.00;98.40;;;;;;5054573;28;20521;-74
2020/12/24 10:12:30;;;;;;;0.20;0.10;;;6.00;98.40;;;;;;5053806;28;20394;-74
2020/12/24 10:14:56;;;;;;;0.10;0.10;;;6.00;98.40;;;;;;5061072;28;20033;-73
2020/12/24 10:17:23;;;;;;;0.10;0.10;;;6.00;98.40;;;;;;5053370;28;20040;-73
2020/12/24 10:19:51;;;;;;;0.10;0.10;;;5.90;98.40;;;;;;5061921;28;21170;-74
2020/12/24 10:22:17;;;;;;;0.10;0.10;;;6.00;98.40;;;;;;5057876;28;20029;-73
2020/12/24 10:24:43;;;;;;;0.23;0.10;;;6.00;98.40;;;;;;5053615;28;20052;-74
2020/12/24 10:27:12;;;;;;;0.10;0.10;;;6.00;98.40;;;;;;5078028;28;20047;-74
2020/12/24 10:29:38;;;;;;;0.10;0.10;;;6.00;98.40;;;;;;5035163;28;20403;-74
2020/12/24 10:32:04;;;;;;;0.10;0.10;;;6.00;98.40;;;;;;5053679;28;20037;-74
2020/12/24 10:34:30;;;;;;;0.20;0.10;;;6.00;98.40;;;;;;5069664;28;20025;-74
2020/12/24 10:36:57;;;;;;;0.20;0.10;;;6.10;98.40;;;;;;5071425;28;20028;-75
2020/12/24 10:39:23;;;;;;;0.10;0.10;;;6.10;98.40;;;;;;5055603;28;20040;-74
2020/12/24 10:41:50;;;;;;;0.10;0.10;;;6.10;98.50;;;;;;5055630;28;20025;-74
2020/12/24 10:44:17;;;;;;;0.17;0.10;;;6.10;98.50;;;;;;5073458;28;20442;-74
2020/12/24 10:46:43;;;;;;;0.30;0.20;;;6.10;98.50;;;;;;5073297;28;20154;-74
2020/12/24 10:49:08;;;;;;;0.37;0.20;;;6.20;98.50;;;;;;5073349;28;20107;-75
2020/12/24 10:51:34;;;;;;;0.63;0.20;;;6.20;98.50;;;;;;5072030;28;20040;-75
2020/12/24 10:53:59;;;;;;;0.90;0.20;;;6.20;98.50;;;;;;5072152;28;20044;-73
2020/12/24 10:56:25;;;;;;;2.03;0.60;;;6.30;98.50;;;;;;5052639;28;20029;-74
2020/12/24 10:58:51;;;;;;;1.97;0.47;;;6.30;98.50;;;;;;5052078;28;20033;-73
2020/12/24 11:01:18;;;;;;;2.43;0.47;;;6.30;98.50;;;;;;5066166;28;20027;-73
2020/12/24 11:03:44;;;;;;;1.60;0.40;;;6.30;98.60;;;;;;5073883;28;20044;-74
2020/12/24 11:06:19;;;;;;;2.23;0.40;;;6.30;98.60;;;;;;5080293;28;20466;-73
2020/12/24 11:08:45;;;;;;;1.73;0.30;;;6.30;98.60;;;;;;5053153;28;20587;-73
2020/12/24 11:11:12;;;;;;;1.70;0.30;;;6.40;98.60;;;;;;5054513;28;20688;-73
2020/12/24 11:13:37;;;;;;;0.93;0.20;;;6.40;98.60;;;;;;5065855;28;20040;-72
2020/12/24 11:16:04;;;;;;;0.30;0.20;;;6.40;98.50;;;;;;5051325;28;20048;-73
2020/12/24 11:18:30;;;;;;;0.47;0.10;;;6.40;98.60;;;;;;5056550;28;20431;-72
2020/12/24 11:20:56;;;;;;;0.60;0.20;;;6.50;98.60;;;;;;5062124;28;20032;-73
2020/12/24 11:23:22;;;;;;;0.80;0.20;;;6.50;98.60;;;;;;5056372;28;20064;-73
2020/12/24 11:25:47;;;;;;;0.23;0.13;;;6.50;98.60;;;;;;5057484;28;20036;-73
2020/12/24 11:28:13;;;;;;;0.37;0.20;;;6.50;98.60;;;;;;5055189;28;20025;-73
2020/12/24 11:30:39;;;;;;;0.27;0.10;;;6.50;98.60;;;;;;5056069;28;20040;-72
2020/12/24 11:33:04;;;;;;;0.20;0.10;;;6.50;98.60;;;;;;5060954;28;20036;-73
2020/12/24 11:35:30;;;;;;;0.20;0.10;;;6.60;98.60;;;;;;5067465;28;20056;-73
2020/12/24 11:37:55;;;;;;;0.10;0.10;;;6.60;98.60;;;;;;5076549;28;20028;-73
2020/12/24 11:40:21;;;;;;;0.30;0.10;;;6.60;98.60;;;;;;5072782;28;20346;-75
2020/12/24 11:42:46;;;;;;;0.20;0.10;;;6.60;98.60;;;;;;5038735;28;20028;-74
2020/12/24 11:45:12;;;;;;;0.10;0.10;;;6.70;98.60;;;;;;5053887;28;20024;-75
2020/12/24 11:47:38;;;;;;;0.20;0.10;;;6.60;98.60;;;;;;5076774;28;20377;-74
2020/12/24 11:50:05;;;;;;;0.03;0.00;;;6.80;98.60;;;;;;5061219;28;20028;-74
2020/12/24 11:52:33;;;;;;;0.10;0.10;;;6.80;98.60;;;;;;5055157;28;20028;-75
2020/12/24 11:54:59;;;;;;;0.20;0.10;;;6.80;98.60;;;;;;5066802;28;20037;-73
2020/12/24 11:57:26;;;;;;;0.10;0.10;;;6.80;98.60;;;;;;5054940;28;20025;-74
2020/12/24 11:59:51;;;;;;;0.00;0.00;;;6.80;98.60;;;;;;5062704;28;20055;-72
2020/12/24 12:02:17;;;;;;;0.00;0.00;;;6.80;98.60;;;;;;5061099;28;20454;-73
2020/12/24 12:04:42;;;;;;;0.20;0.10;;;6.90;98.60;;;;;;5054073;28;20456;-73
2020/12/24 12:07:08;;;;;;;0.10;0.10;;;6.90;98.70;;;;;;5059574;28;20037;-73
2020/12/24 12:09:34;;;;;;;0.10;0.10;;;6.90;98.70;;;;;;5040438;28;20040;-74
2020/12/24 12:11:59;;;;;;;0.10;0.10;;;7.00;98.70;;;;;;5058305;28;20053;-73
2020/12/24 12:14:25;;;;;;;0.67;0.10;;;7.00;98.70;;;;;;5060150;28;20025;-73
2020/12/24 12:16:50;;;;;;;0.03;0.00;;;7.00;98.70;;;;;;5056278;28;20029;-73
2020/12/24 12:19:16;;;;;;;0.10;0.10;;;7.10;98.70;;;;;;5054717;28;20025;-73
2020/12/24 12:21:41;;;;;;;0.10;0.10;;;7.10;98.70;;;;;;5056055;28;20033;-74
2020/12/24 12:24:07;;;;;;;0.10;0.10;;;7.10;98.70;;;;;;5056893;28;20074;-74
2020/12/24 12:26:33;;;;;;;0.10;0.10;;;7.10;98.70;;;;;;5054250;28;20032;-73
2020/12/24 12:28:58;;;;;;;0.00;0.00;;;7.10;98.70;;;;;;5062784;28;20053;-73
2020/12/24 12:31:24;;;;;;;0.10;0.10;;;7.10;98.70;;;;;;5054446;28;20419;-73
2020/12/24 12:33:52;;;;;;;0.10;0.10;;;7.10;98.90;;;;;;5058361;28;20025;-73
2020/12/24 12:36:18;;;;;;;0.10;0.10;;;7.10;98.60;;;;;;5071543;28;20020;-74
2020/12/24 12:38:46;;;;;;;0.10;0.10;;;7.10;98.60;;;;;;5075759;28;20033;-74
2020/12/24 12:41:16;;;;;;;0.10;0.10;;;7.10;98.60;;;;;;5075345;28;20053;-73
2020/12/24 12:43:42;;;;;;;0.23;0.10;;;7.10;98.60;;;;;;5075662;28;20028;-74
2020/12/24 12:46:08;;;;;;;0.03;0.00;;;7.10;98.50;;;;;;5075613;28;20025;-73
2020/12/24 12:48:34;;;;;;;0.10;0.10;;;7.10;98.50;;;;;;5074445;28;20116;-73
2020/12/24 12:51:00;;;;;;;0.00;0.00;;;7.10;98.50;;;;;;5075354;28;20059;-72
2020/12/24 12:53:26;;;;;;;0.00;0.00;;;7.00;98.50;;;;;;5075626;28;20025;-73
2020/12/24 12:55:51;;;;;;;0.30;0.10;;;7.10;98.50;;;;;;5075534;28;20198;-73
2020/12/24 12:58:17;;;;;;;0.10;0.10;;;7.10;98.50;;;;;;5057263;28;20029;-73
2020/12/24 13:00:43;;;;;;;0.00;0.00;;;7.10;98.50;;;;;;5054240;28;20128;-74